Time;durP1;ratioP1;P1;durP2;ratioP2;P2;SDS_P1;SDS_P2;PMS_P1;PMS_P2;Temp;Humidity;BMP_temperature;BMP_pressure;BME280_temperature;BME280_humidity;BME280_pressure;Samples;Min_cycle;Max_cycle;Signal;HPM_P1;HPM_P2
2024/04/15 00:00:30;;;;;;;3.83;2.70;;;15.50;99.90;;;;;;5454722;26;20324;-79
2024/04/15 00:02:56;;;;;;;2.70;2.50;;;15.90;99.90;;;;;;5457646;26;20868;-79
2024/04/15 00:05:21;;;;;;;2.70;2.50;;;15.50;86.00;;;;;;5488341;26;20334;-80
2024/04/15 00:07:49;;;;;;;3.35;2.80;;;16.10;1.00;;;;;;5459893;26;20317;-79
2024/04/15 00:10:15;;;;;;;2.92;2.72;;;16.00;1.00;;;;;;5450982;26;20340;-79
2024/04/15 00:12:40;;;;;;;3.10;2.80;;;15.80;1.00;;;;;;5430306;26;20363;-80
2024/04/15 00:15:06;;;;;;;3.70;2.73;;;16.00;1.00;;;;;;5440399;26;21146;-79
2024/04/15 00:17:32;;;;;;;3.50;2.80;;;16.50;1.00;;;;;;5480941;26;20701;-80
2024/04/15 00:19:57;;;;;;;3.20;2.70;;;16.60;1.00;;;;;;5454440;26;20416;-80
2024/04/15 00:22:23;;;;;;;3.60;2.70;;;16.10;1.00;;;;;;5465962;26;20360;-78
2024/04/15 00:24:49;;;;;;;2.85;2.50;;;18.20;1.00;;;;;;5427793;26;20705;-80
2024/04/15 00:27:14;;;;;;;3.55;2.90;;;16.50;1.00;;;;;;5427429;26;20325;-80
2024/04/15 00:29:40;;;;;;;3.73;3.10;;;16.50;1.00;;;;;;5457875;26;20336;-79
2024/04/15 00:32:05;;;;;;;4.40;2.80;;;16.50;1.00;;;;;;5427050;26;20325;-79
2024/04/15 00:34:32;;;;;;;4.28;3.88;;;16.90;1.00;;;;;;5437288;26;20329;-79
2024/04/15 00:36:57;;;;;;;3.30;3.10;;;19.00;8.20;;;;;;5447059;26;20675;-78
2024/04/15 00:39:25;;;;;;;3.65;3.05;;;17.40;1.00;;;;;;5485374;26;20413;-79
2024/04/15 00:41:51;;;;;;;4.57;2.77;;;17.40;1.00;;;;;;5487966;26;20322;-79
2024/04/15 00:44:16;;;;;;;4.40;4.00;;;17.10;1.00;;;;;;5485021;26;20350;-79
2024/04/15 00:46:42;;;;;;;3.67;3.33;;;17.00;76.90;;;;;;5454690;26;20711;-79
2024/04/15 00:49:10;;;;;;;3.35;2.85;;;17.50;9.70;;;;;;5484300;26;20322;-79
2024/04/15 00:51:37;;;;;;;4.28;2.85;;;17.30;17.00;;;;;;5450844;26;20336;-79
2024/04/15 00:54:05;;;;;;;6.40;3.10;;;17.00;4.80;;;;;;5450488;26;20348;-77
2024/04/15 00:56:31;;;;;;;3.60;2.97;;;17.00;12.20;;;;;;5426384;26;20318;-79
2024/04/15 00:58:57;;;;;;;3.47;3.17;;;17.40;43.40;;;;;;5485949;26;20311;-79
2024/04/15 01:01:24;;;;;;;3.50;3.15;;;16.70;51.20;;;;;;5449736;26;20341;-80
2024/04/15 01:03:50;;;;;;;4.70;3.30;;;16.70;46.70;;;;;;5450389;26;20353;-79
2024/04/15 01:06:17;;;;;;;3.78;3.42;;;17.10;63.90;;;;;;5473431;26;20322;-76
2024/04/15 01:08:43;;;;;;;3.90;3.50;;;16.50;74.20;;;;;;5490500;26;20732;-78
2024/04/15 01:11:09;;;;;;;4.67;3.80;;;16.90;99.90;;;;;;5441788;26;20376;-79
2024/04/15 01:13:35;;;;;;;4.57;3.72;;;16.80;92.30;;;;;;5427707;26;20328;-79
2024/04/15 01:16:01;;;;;;;4.50;3.50;;;17.10;82.90;;;;;;5451439;26;20392;-79
2024/04/15 01:18:28;;;;;;;4.10;3.30;;;17.80;45.50;;;;;;5450706;26;20329;-77
2024/04/15 01:20:58;;;;;;;5.60;3.00;;;17.40;67.60;;;;;;5419825;26;20384;-79
2024/04/15 01:23:26;;;;;;;3.60;3.20;;;16.50;98.80;;;;;;5442251;26;20344;-79
2024/04/15 01:25:52;;;;;;;3.80;3.50;;;16.90;93.50;;;;;;5419142;26;20388;-79
2024/04/15 01:28:19;;;;;;;4.45;3.13;;;16.50;99.90;;;;;;5450105;26;20325;-80
2024/04/15 01:30:46;;;;;;;3.60;3.20;;;17.00;99.90;;;;;;5450555;26;20489;-80
2024/04/15 01:33:11;;;;;;;3.87;3.10;;;17.00;99.90;;;;;;5450607;26;20316;-79
2024/04/15 01:35:37;;;;;;;2.80;2.50;;;17.30;99.90;;;;;;5419089;26;20345;-79
2024/04/15 01:38:03;;;;;;;3.83;2.80;;;16.60;99.90;;;;;;5465164;26;20442;-79
2024/04/15 01:40:28;;;;;;;3.80;3.00;;;17.10;99.90;;;;;;5453046;26;20349;-78
2024/04/15 01:42:54;;;;;;;3.60;3.10;;;17.00;99.90;;;;;;5420350;26;20375;-80
2024/04/15 01:45:21;;;;;;;4.27;3.07;;;16.40;99.90;;;;;;5418207;26;20403;-80
2024/04/15 01:47:47;;;;;;;3.63;3.15;;;16.90;99.90;;;;;;5436161;26;20325;-79
2024/04/15 01:50:16;;;;;;;4.00;2.90;;;16.80;99.90;;;;;;5481089;26;20557;-80
2024/04/15 01:52:43;;;;;;;3.45;3.15;;;16.80;99.90;;;;;;5455803;26;20464;-80
2024/04/15 01:55:09;;;;;;;3.70;3.30;;;16.40;99.90;;;;;;5481379;26;20352;-79
2024/04/15 01:57:35;;;;;;;3.40;2.95;;;16.00;99.90;;;;;;5453215;26;20824;-79
2024/04/15 02:00:05;;;;;;;4.90;3.33;;;16.60;99.90;;;;;;5453941;26;20307;-80
2024/04/15 02:02:30;;;;;;;3.40;2.87;;;16.50;99.90;;;;;;5421169;26;20325;-80
2024/04/15 02:04:56;;;;;;;4.47;3.43;;;16.20;99.90;;;;;;5446267;26;20321;-80
2024/04/15 02:07:21;;;;;;;4.22;3.20;;;16.00;99.90;;;;;;5487004;26;20322;-80
2024/04/15 02:09:47;;;;;;;4.20;3.20;;;16.40;99.90;;;;;;5489622;26;20350;-80
2024/04/15 02:12:12;;;;;;;4.90;2.90;;;15.90;99.90;;;;;;5435975;26;20370;-80
2024/04/15 02:14:38;;;;;;;3.47;3.17;;;16.70;99.90;;;;;;5423818;26;20844;-79
2024/04/15 02:17:03;;;;;;;3.73;2.70;;;16.70;99.90;;;;;;5453606;26;20713;-79
2024/04/15 02:19:31;;;;;;;4.22;2.95;;;17.10;99.90;;;;;;5424370;26;20721;-78
2024/04/15 02:21:57;;;;;;;4.25;3.00;;;16.70;99.90;;;;;;5440384;26;20329;-79
2024/04/15 02:24:22;;;;;;;3.05;2.70;;;16.50;99.90;;;;;;5430368;26;20360;-79
2024/04/15 02:26:48;;;;;;;3.45;3.15;;;16.10;99.90;;;;;;5456937;26;20333;-79
2024/04/15 02:29:13;;;;;;;3.00;2.70;;;16.90;99.90;;;;;;5427991;26;20328;-81
2024/04/15 02:31:39;;;;;;;3.27;2.97;;;17.90;99.90;;;;;;5492046;26;20348;-78
2024/04/15 02:34:04;;;;;;;3.50;3.20;;;16.40;99.90;;;;;;5456674;26;20329;-81
2024/04/15 02:36:30;;;;;;;4.07;2.63;;;16.60;99.90;;;;;;5435838;26;20372;-79
2024/04/15 02:38:55;;;;;;;4.78;3.00;;;16.50;99.90;;;;;;5452883;26;20320;-79
2024/04/15 02:41:21;;;;;;;3.47;2.87;;;16.20;99.90;;;;;;5420989;26;20333;-79
2024/04/15 02:43:46;;;;;;;4.30;3.10;;;17.30;99.90;;;;;;5458074;26;20420;-79
2024/04/15 02:46:12;;;;;;;4.07;2.40;;;16.20;99.90;;;;;;5446482;26;20334;-79
2024/04/15 02:48:38;;;;;;;3.20;2.53;;;17.00;99.90;;;;;;5420454;26;20386;-79
2024/04/15 02:51:04;;;;;;;3.30;2.97;;;17.10;99.90;;;;;;5449098;26;20326;-79
2024/04/15 02:53:32;;;;;;;2.85;2.60;;;16.50;99.90;;;;;;5488514;26;20347;-79
2024/04/15 02:55:57;;;;;;;2.80;2.60;;;16.50;99.90;;;;;;5489306;26;20474;-78
2024/04/15 02:58:23;;;;;;;3.63;2.90;;;16.20;99.90;;;;;;5454590;26;20369;-79
2024/04/15 03:00:48;;;;;;;4.10;2.60;;;16.10;99.90;;;;;;5476189;26;20316;-79
2024/04/15 03:03:14;;;;;;;3.00;2.70;;;15.50;99.90;;;;;;5450383;26;20773;-79
2024/04/15 03:05:40;;;;;;;3.10;2.80;;;15.50;99.90;;;;;;5451746;26;20321;-78
2024/04/15 03:08:06;;;;;;;4.40;2.90;;;15.60;99.90;;;;;;5419525;26;20872;-77
2024/04/15 03:10:31;;;;;;;4.88;3.10;;;16.10;99.90;;;;;;5435368;26;20360;-79
2024/04/15 03:12:57;;;;;;;4.10;2.80;;;15.50;99.90;;;;;;5481915;26;20322;-79
2024/04/15 03:15:22;;;;;;;4.47;3.15;;;15.70;99.90;;;;;;5456570;26;20353;-79
2024/04/15 03:17:48;;;;;;;3.70;3.10;;;15.50;99.90;;;;;;5433769;26;20321;-80
2024/04/15 03:20:14;;;;;;;5.40;3.60;;;15.70;99.90;;;;;;5477601;26;20330;-78
2024/04/15 03:22:40;;;;;;;5.70;3.90;;;15.70;99.90;;;;;;5487077;26;20355;-79
2024/04/15 03:25:05;;;;;;;3.60;3.13;;;15.40;99.90;;;;;;5451770;26;20336;-80
2024/04/15 03:27:31;;;;;;;4.00;3.60;;;16.10;99.90;;;;;;5419825;26;20355;-80
2024/04/15 03:29:56;;;;;;;4.17;3.77;;;15.80;99.90;;;;;;5443885;26;20350;-78
2024/04/15 03:32:22;;;;;;;4.47;3.60;;;15.20;99.90;;;;;;5464017;26;20427;-80
2024/04/15 03:34:47;;;;;;;4.90;3.50;;;14.80;99.90;;;;;;5457750;26;20442;-79
2024/04/15 03:37:13;;;;;;;4.10;3.70;;;15.60;99.90;;;;;;5420373;26;20366;-79
2024/04/15 03:39:38;;;;;;;3.80;3.50;;;15.00;99.90;;;;;;5476636;21;21023;-84
2024/04/15 03:42:04;;;;;;;5.03;4.20;;;15.40;99.90;;;;;;5469082;26;20337;-84
2024/04/15 03:44:30;;;;;;;5.00;4.40;;;14.80;99.90;;;;;;5457187;26;21237;-84
2024/04/15 03:46:55;;;;;;;6.10;4.72;;;15.00;99.90;;;;;;5425295;26;20362;-85
2024/04/15 03:49:21;;;;;;;4.50;4.03;;;14.60;99.90;;;;;;5447999;26;20378;-84
2024/04/15 03:51:46;;;;;;;4.80;4.40;;;14.70;99.90;;;;;;5480036;26;20822;-84
2024/04/15 03:54:12;;;;;;;4.70;4.30;;;14.80;99.90;;;;;;5459207;26;20351;-84
2024/04/15 03:56:38;;;;;;;5.07;4.67;;;14.10;99.90;;;;;;5441360;26;20368;-84
2024/04/15 03:59:04;;;;;;;4.70;4.30;;;14.60;99.90;;;;;;5446553;26;20378;-84
2024/04/15 04:01:29;;;;;;;5.40;4.90;;;14.90;99.90;;;;;;5491065;26;20817;-85
2024/04/15 04:03:55;;;;;;;5.28;4.80;;;13.40;99.90;;;;;;5486884;26;20353;-83
2024/04/15 04:06:20;;;;;;;5.80;5.20;;;14.90;99.90;;;;;;5480865;26;20348;-84
2024/04/15 04:08:46;;;;;;;5.00;4.60;;;14.60;99.90;;;;;;5434382;26;20332;-84
2024/04/15 04:11:11;;;;;;;4.93;4.43;;;14.60;99.90;;;;;;5435988;26;20325;-83
2024/04/15 04:13:37;;;;;;;5.30;4.80;;;16.10;99.90;;;;;;5436870;26;20367;-84
2024/04/15 04:16:03;;;;;;;4.75;4.30;;;14.40;99.90;;;;;;5434400;26;20313;-84
2024/04/15 04:18:29;;;;;;;5.30;4.80;;;14.50;99.90;;;;;;5455434;26;20361;-83
2024/04/15 04:20:54;;;;;;;4.30;3.90;;;14.80;99.90;;;;;;5494536;26;20318;-84
2024/04/15 04:23:20;;;;;;;5.50;4.90;;;15.60;99.90;;;;;;5449378;26;20999;-84
2024/04/15 04:25:46;;;;;;;5.83;4.17;;;14.50;99.90;;;;;;5471185;26;20325;-84
2024/04/15 04:28:13;;;;;;;4.20;3.80;;;14.00;99.90;;;;;;5456631;26;20357;-84
2024/04/15 04:30:38;;;;;;;4.60;4.20;;;14.60;99.90;;;;;;5425757;26;20321;-84
2024/04/15 04:33:04;;;;;;;8.10;4.17;;;14.40;99.90;;;;;;5457219;26;20376;-85
2024/04/15 04:35:39;;;;;;;6.60;4.00;;;14.80;99.90;;;;;;5428826;26;20321;-84
2024/04/15 04:38:06;;;;;;;4.20;3.80;;;14.00;99.90;;;;;;5456270;26;20368;-84
2024/04/15 04:40:31;;;;;;;8.20;3.80;;;14.60;99.90;;;;;;5458412;26;20824;-84
2024/04/15 04:42:57;;;;;;;5.00;4.17;;;15.30;99.90;;;;;;5445306;26;20361;-84
2024/04/15 04:45:24;;;;;;;4.70;4.20;;;13.70;99.90;;;;;;5429166;26;20364;-84
2024/04/15 04:47:49;;;;;;;4.45;3.80;;;14.70;99.90;;;;;;5460994;26;20867;-84
2024/04/15 04:50:15;;;;;;;4.30;4.00;;;14.30;99.90;;;;;;5457755;26;20337;-85
2024/04/15 04:52:41;;;;;;;4.32;3.92;;;15.10;99.90;;;;;;5457994;26;20399;-84
2024/04/15 04:55:06;;;;;;;3.83;3.50;;;13.50;99.90;;;;;;5476394;26;20330;-84
2024/04/15 04:57:33;;;;;;;3.70;3.40;;;13.60;99.90;;;;;;5438006;26;20333;-84
2024/04/15 04:59:59;;;;;;;5.72;3.83;;;14.40;99.90;;;;;;5426064;26;20426;-84
2024/04/15 05:02:25;;;;;;;4.17;3.77;;;14.20;99.90;;;;;;5440893;26;20314;-84
2024/04/15 05:04:51;;;;;;;4.50;4.10;;;14.30;99.90;;;;;;5448393;26;20760;-84
2024/04/15 05:07:16;;;;;;;5.53;4.03;;;14.40;99.90;;;;;;5455705;26;20321;-85
2024/04/15 05:09:42;;;;;;;4.87;4.37;;;14.70;99.90;;;;;;5463113;26;20333;-85
2024/04/15 05:12:08;;;;;;;4.15;3.67;;;14.80;99.90;;;;;;5485809;26;20366;-83
2024/04/15 05:14:33;;;;;;;6.53;4.10;;;15.00;99.90;;;;;;5492039;26;20318;-83
2024/04/15 05:16:59;;;;;;;4.70;4.20;;;14.60;99.90;;;;;;5459609;26;20358;-83
2024/04/15 05:19:25;;;;;;;4.60;4.20;;;14.90;99.90;;;;;;5457661;26;20337;-84
2024/04/15 05:21:51;;;;;;;4.63;3.70;;;14.80;99.90;;;;;;5461779;26;20384;-83
2024/04/15 05:24:16;;;;;;;6.50;4.53;;;14.20;99.90;;;;;;5439578;26;20340;-83
2024/04/15 05:26:42;;;;;;;4.07;3.78;;;14.60;99.90;;;;;;5455703;26;20392;-83
2024/04/15 05:29:07;;;;;;;5.10;4.13;;;14.90;99.90;;;;;;5459737;26;20417;-83
2024/04/15 05:31:33;;;;;;;4.65;4.25;;;14.80;99.90;;;;;;5459848;26;20333;-83
2024/04/15 05:33:59;;;;;;;5.07;4.10;;;14.50;99.90;;;;;;5432793;26;20330;-85
2024/04/15 05:36:24;;;;;;;4.53;4.13;;;14.50;99.90;;;;;;5449812;26;20401;-85
2024/04/15 05:38:50;;;;;;;5.00;4.40;;;14.70;99.90;;;;;;5439482;26;20344;-84
2024/04/15 05:41:15;;;;;;;4.43;4.03;;;14.60;99.90;;;;;;5440376;26;20318;-81
2024/04/15 05:43:41;;;;;;;12.33;10.20;;;14.90;99.90;;;;;;5431433;26;20308;-84
2024/04/15 05:46:06;;;;;;;5.50;4.20;;;14.50;99.90;;;;;;5457686;26;20534;-84
2024/04/15 05:48:32;;;;;;;5.53;4.30;;;14.70;99.90;;;;;;5454026;26;20418;-83
2024/04/15 05:50:57;;;;;;;4.37;3.97;;;15.20;99.90;;;;;;5422312;26;20423;-83
2024/04/15 05:53:23;;;;;;;4.60;4.20;;;14.90;99.90;;;;;;5453923;26;20349;-85
2024/04/15 05:55:48;;;;;;;7.82;4.80;;;15.00;99.90;;;;;;5425427;26;20329;-85
2024/04/15 05:58:15;;;;;;;4.13;3.70;;;;;;;;;;5425401;26;20729;-86
2024/04/15 06:00:40;;;;;;;4.70;4.30;;;14.90;99.90;;;;;;5445731;26;20753;-85
2024/04/15 06:03:06;;;;;;;4.57;4.17;;;14.70;99.90;;;;;;5459844;26;20318;-85
2024/04/15 06:05:32;;;;;;;4.68;3.80;;;14.80;99.90;;;;;;5496124;26;20310;-85
2024/04/15 06:07:58;;;;;;;3.70;3.40;;;15.20;99.90;;;;;;5448403;26;20378;-85
2024/04/15 06:10:24;;;;;;;4.33;3.70;;;15.60;99.90;;;;;;5469579;26;20384;-85
2024/04/15 06:12:51;;;;;;;5.57;4.10;;;15.90;99.90;;;;;;5481502;26;20369;-86
2024/04/15 06:15:16;;;;;;;4.43;3.53;;;15.50;99.90;;;;;;5465094;26;20363;-84
2024/04/15 06:17:42;;;;;;;5.40;3.90;;;15.50;99.90;;;;;;5497962;26;20323;-84
2024/04/15 06:20:08;;;;;;;4.53;3.80;;;15.00;99.90;;;;;;5498199;26;20366;-84
2024/04/15 06:22:33;;;;;;;9.85;3.75;;;15.50;99.90;;;;;;5498136;26;20314;-84
2024/04/15 06:24:59;;;;;;;5.90;3.90;;;15.40;99.90;;;;;;5496021;26;20315;-84
2024/04/15 06:27:24;;;;;;;5.13;3.28;;;14.70;99.90;;;;;;5463086;26;20378;-84
2024/04/15 06:29:50;;;;;;;3.92;3.42;;;15.10;99.90;;;;;;5495868;26;20350;-84
2024/04/15 06:32:16;;;;;;;3.90;3.50;;;15.20;99.90;;;;;;5462819;26;20319;-87
2024/04/15 06:34:41;;;;;;;3.90;3.50;;;;;;;;;;5460168;26;20422;-85
2024/04/15 06:37:07;;;;;;;2.88;2.40;;;14.60;99.90;;;;;;5461321;26;20355;-82
2024/04/15 06:39:34;;;;;;;5.07;2.90;;;14.30;99.90;;;;;;5494373;26;20420;-83
2024/04/15 06:41:59;;;;;;;4.50;2.80;;;14.20;99.90;;;;;;5462653;26;20330;-83
2024/04/15 06:44:25;;;;;;;4.63;2.70;;;13.90;99.90;;;;;;5494075;26;20354;-84
2024/04/15 06:46:50;;;;;;;4.32;2.83;;;14.30;99.90;;;;;;5461975;26;20358;-84
2024/04/15 06:49:16;;;;;;;3.42;3.03;;;14.00;99.90;;;;;;5461967;26;20327;-84
2024/04/15 06:51:41;;;;;;;5.10;3.20;;;14.20;99.90;;;;;;5462623;26;20318;-83
2024/04/15 06:54:07;;;;;;;6.00;3.70;;;14.50;99.90;;;;;;5433121;26;20411;-83
2024/04/15 06:56:33;;;;;;;3.65;3.30;;;13.60;99.90;;;;;;5425048;26;20328;-83
2024/04/15 06:58:58;;;;;;;5.97;3.30;;;13.60;99.90;;;;;;5426050;26;20337;-83
2024/04/15 07:01:25;;;;;;;5.70;3.20;;;14.30;99.90;;;;;;5459168;26;20709;-83
2024/04/15 07:03:51;;;;;;;4.97;3.45;;;13.90;99.90;;;;;;5458567;26;20414;-82
2024/04/15 07:06:16;;;;;;;3.90;3.45;;;13.80;99.90;;;;;;5458989;26;20688;-82
2024/04/15 07:08:43;;;;;;;4.30;3.10;;;14.10;99.90;;;;;;5426001;26;20388;-82
2024/04/15 07:11:09;;;;;;;5.07;3.40;;;14.20;99.90;;;;;;5458580;26;20317;-83
2024/04/15 07:13:34;;;;;;;4.10;3.60;;;15.50;99.90;;;;;;5460123;26;20345;-83
2024/04/15 07:16:00;;;;;;;5.53;3.50;;;13.50;99.90;;;;;;5458078;26;20351;-82
2024/04/15 07:18:26;;;;;;;3.43;2.80;;;13.90;99.90;;;;;;5456306;26;20965;-84
2024/04/15 07:20:51;;;;;;;3.25;2.90;;;13.90;99.90;;;;;;5458283;26;20333;-82
2024/04/15 07:23:17;;;;;;;4.30;3.30;;;14.00;99.90;;;;;;5482695;26;20423;-83
2024/04/15 07:25:42;;;;;;;5.40;3.73;;;14.00;99.90;;;;;;5463864;26;20814;-83
2024/04/15 07:28:08;;;;;;;5.57;3.20;;;15.20;99.90;;;;;;5493825;26;20318;-85
2024/04/15 07:30:33;;;;;;;3.78;3.17;;;14.30;99.90;;;;;;5467788;26;20322;-84
2024/04/15 07:32:59;;;;;;;4.13;2.80;;;13.90;99.90;;;;;;5468432;26;20322;-84
2024/04/15 07:35:25;;;;;;;4.73;3.23;;;13.90;99.90;;;;;;5496486;26;20321;-83
2024/04/15 07:37:51;;;;;;;3.63;2.60;;;13.80;99.90;;;;;;5460969;26;20412;-85
2024/04/15 07:40:16;;;;;;;5.65;3.00;;;14.40;99.90;;;;;;5460328;26;20771;-84
2024/04/15 07:42:42;;;;;;;4.90;3.10;;;14.30;99.90;;;;;;5462156;26;20893;-83
2024/04/15 07:45:08;;;;;;;5.23;3.10;;;13.80;99.90;;;;;;5495671;26;20330;-83
2024/04/15 07:47:33;;;;;;;3.20;2.90;;;13.80;99.90;;;;;;5463474;26;20322;-83
2024/04/15 07:49:59;;;;;;;3.67;2.60;;;14.30;99.90;;;;;;5463693;26;20362;-83
2024/04/15 07:52:25;;;;;;;4.88;2.85;;;14.30;99.90;;;;;;5498541;26;20366;-82
2024/04/15 07:54:51;;;;;;;5.47;3.00;;;14.00;99.90;;;;;;5496651;26;20323;-83
2024/04/15 07:57:17;;;;;;;2.70;2.50;;;14.10;99.90;;;;;;5461951;26;20453;-83
2024/04/15 07:59:43;;;;;;;3.37;2.60;;;14.40;99.90;;;;;;5495146;26;20351;-83
2024/04/15 08:02:09;;;;;;;3.73;2.40;;;14.30;99.90;;;;;;5505549;26;20334;-84
2024/04/15 08:04:35;;;;;;;6.13;2.85;;;14.60;99.90;;;;;;5497331;26;20345;-83
2024/04/15 08:07:01;;;;;;;4.25;2.70;;;14.10;99.90;;;;;;5496685;26;20351;-83
2024/04/15 08:09:26;;;;;;;5.00;2.77;;;14.80;99.90;;;;;;5504173;26;20310;-83
2024/04/15 08:11:52;;;;;;;4.07;3.03;;;14.80;99.90;;;;;;5498705;26;20314;-84
2024/04/15 08:14:20;;;;;;;3.88;3.15;;;14.70;99.90;;;;;;5464124;26;20402;-83
2024/04/15 08:16:46;;;;;;;3.70;3.30;;;14.50;99.90;;;;;;5496743;26;20326;-83
2024/04/15 08:19:11;;;;;;;4.25;3.85;;;15.00;99.90;;;;;;5464139;26;20703;-83
2024/04/15 08:21:37;;;;;;;3.50;3.20;;;15.20;99.90;;;;;;5494646;26;20318;-83
2024/04/15 08:24:03;;;;;;;4.27;3.57;;;15.30;99.90;;;;;;5473327;26;20313;-83
2024/04/15 08:26:28;;;;;;;4.60;3.33;;;15.60;99.90;;;;;;5426179;26;20325;-83
2024/04/15 08:28:54;;;;;;;5.03;3.07;;;15.10;99.90;;;;;;5456174;26;20320;-84
2024/04/15 08:31:19;;;;;;;4.00;3.17;;;15.60;99.90;;;;;;5423445;26;20321;-82
2024/04/15 08:33:45;;;;;;;3.85;2.80;;;15.40;99.90;;;;;;5455694;26;20482;-82
2024/04/15 08:36:12;;;;;;;3.00;2.70;;;15.70;99.90;;;;;;5425330;26;20981;-83
2024/04/15 08:38:40;;;;;;;3.10;2.80;;;15.00;99.90;;;;;;5432605;26;20369;-83
2024/04/15 08:41:11;;;;;;;3.40;2.53;;;16.30;99.90;;;;;;5487385;26;20322;-83
2024/04/15 08:43:37;;;;;;;4.20;3.17;;;15.50;99.90;;;;;;5493231;26;20315;-84
2024/04/15 08:46:05;;;;;;;3.28;2.97;;;15.30;99.90;;;;;;5462015;26;20357;-83
2024/04/15 08:48:32;;;;;;;4.75;3.00;;;15.20;99.90;;;;;;5494314;26;20676;-84
2024/04/15 08:51:02;;;;;;;5.93;3.05;;;15.40;99.90;;;;;;5460968;26;20326;-83
2024/04/15 08:53:28;;;;;;;6.70;3.28;;;15.60;99.90;;;;;;5493101;26;20330;-83
2024/04/15 08:55:54;;;;;;;5.60;3.03;;;15.40;99.90;;;;;;5492635;26;20428;-83
2024/04/15 08:58:20;;;;;;;6.35;3.00;;;16.60;99.90;;;;;;5491430;26;20322;-82
2024/04/15 09:00:47;;;;;;;3.40;3.10;;;15.60;99.90;;;;;;5453101;26;20400;-82
2024/04/15 09:03:13;;;;;;;4.13;3.35;;;16.00;99.90;;;;;;5459780;26;20329;-83
2024/04/15 09:05:39;;;;;;;4.30;2.80;;;15.90;99.90;;;;;;5483150;26;20696;-83
2024/04/15 09:08:05;;;;;;;5.13;3.20;;;15.70;99.90;;;;;;5497472;26;20348;-83
2024/04/15 09:10:30;;;;;;;3.90;3.00;;;16.10;99.90;;;;;;5466069;26;20334;-82
2024/04/15 09:12:56;;;;;;;4.43;2.72;;;16.30;99.90;;;;;;5466259;26;20310;-82
2024/04/15 09:15:25;;;;;;;3.42;2.90;;;16.90;99.90;;;;;;5498108;26;20861;-85
2024/04/15 09:17:52;;;;;;;3.45;2.75;;;16.80;99.90;;;;;;5471660;26;20349;-83
2024/04/15 09:20:21;;;;;;;3.55;3.25;;;16.70;99.90;;;;;;5428348;26;20372;-82
2024/04/15 09:22:47;;;;;;;3.73;3.33;;;16.10;99.90;;;;;;5463199;26;20759;-82
2024/04/15 09:25:13;;;;;;;5.30;3.70;;;16.20;99.90;;;;;;5435548;26;20415;-83
2024/04/15 09:27:39;;;;;;;3.60;3.30;;;16.00;99.90;;;;;;5481178;26;20322;-82
2024/04/15 09:30:07;;;;;;;3.88;2.90;;;16.60;99.90;;;;;;5496996;26;20388;-83
2024/04/15 09:32:33;;;;;;;4.20;3.10;;;16.70;99.90;;;;;;5497266;26;20405;-83
2024/04/15 09:35:01;;;;;;;4.80;3.40;;;16.40;99.90;;;;;;5495974;26;20354;-83
2024/04/15 09:37:28;;;;;;;3.88;3.20;;;16.50;99.90;;;;;;5463800;26;20370;-83
2024/04/15 09:39:54;;;;;;;4.83;3.33;;;17.20;99.90;;;;;;5485453;21;20790;-78
2024/04/15 09:42:20;;;;;;;4.57;3.80;;;17.00;99.90;;;;;;5416748;26;20340;-78
2024/04/15 09:44:49;;;;;;;5.80;3.90;;;17.50;99.90;;;;;;5452912;26;20835;-78
2024/04/15 09:47:15;;;;;;;4.97;4.50;;;17.40;99.90;;;;;;5420768;26;20403;-79
2024/04/15 09:49:42;;;;;;;4.90;4.40;;;17.90;99.90;;;;;;5454850;26;20329;-79
2024/04/15 09:52:17;;;;;;;4.43;4.00;;;17.50;99.90;;;;;;5490530;26;20310;-79
2024/04/15 09:54:45;;;;;;;5.13;3.85;;;17.60;99.90;;;;;;5491604;26;20806;-79
2024/04/15 09:57:14;;;;;;;4.40;4.00;;;17.40;99.90;;;;;;5489998;26;20341;-79
2024/04/15 09:59:44;;;;;;;4.68;4.15;;;17.40;99.90;;;;;;5490991;26;20659;-79
2024/04/15 10:02:40;;;;;;;4.60;3.60;;;18.10;99.90;;;;;;5491255;26;20344;-79
2024/04/15 10:05:27;;;;;;;4.78;4.28;;;18.20;99.90;;;;;;5473135;26;20330;-78
2024/04/15 10:07:56;;;;;;;4.57;3.50;;;18.20;99.90;;;;;;5501740;26;20374;-78
2024/04/15 10:10:24;;;;;;;3.80;3.50;;;17.80;99.90;;;;;;5462332;26;20322;-78
2024/04/15 10:12:51;;;;;;;4.72;3.50;;;18.10;99.90;;;;;;5457587;26;20360;-78
2024/04/15 10:15:19;;;;;;;4.18;3.50;;;18.40;99.90;;;;;;5457646;26;20830;-79
2024/04/15 10:17:57;;;;;;;3.97;3.27;;;17.70;99.90;;;;;;5482578;26;20340;-78
2024/04/15 10:20:50;;;;;;;3.63;3.33;;;18.00;99.90;;;;;;5486513;26;20346;-79
2024/04/15 10:23:19;;;;;;;5.10;3.40;;;17.20;99.90;;;;;;5442903;26;20317;-79
2024/04/15 10:25:45;;;;;;;4.90;3.72;;;16.90;99.90;;;;;;5491891;26;20310;-78
2024/04/15 10:28:14;;;;;;;5.90;3.80;;;17.30;99.90;;;;;;5497520;26;20426;-79
2024/04/15 10:30:40;;;;;;;4.90;3.10;;;17.70;99.90;;;;;;5498261;26;20719;-79
2024/04/15 10:33:10;;;;;;;4.90;3.47;;;17.30;99.90;;;;;;5493832;26;20670;-79
2024/04/15 10:35:38;;;;;;;3.72;3.42;;;17.90;99.90;;;;;;5459641;26;20424;-78
2024/04/15 10:38:05;;;;;;;3.60;3.13;;;18.30;99.90;;;;;;5490846;26;20747;-78
2024/04/15 10:40:33;;;;;;;4.00;3.10;;;18.40;99.90;;;;;;5491641;26;20370;-79
2024/04/15 10:42:59;;;;;;;4.03;3.10;;;17.80;99.90;;;;;;5490346;26;20322;-78
2024/04/15 10:45:28;;;;;;;4.65;2.90;;;17.80;99.90;;;;;;5461591;26;20330;-78
2024/04/15 10:47:54;;;;;;;4.57;2.72;;;18.30;99.90;;;;;;5485834;26;20389;-78
2024/04/15 10:50:20;;;;;;;3.75;2.78;;;17.90;99.90;;;;;;5500623;26;20346;-78
2024/04/15 10:52:46;;;;;;;3.20;2.50;;;18.70;99.90;;;;;;5503489;26;20342;-77
2024/04/15 10:55:11;;;;;;;4.13;2.83;;;17.80;99.90;;;;;;5473760;26;20342;-79
2024/04/15 10:57:41;;;;;;;3.50;2.80;;;17.90;99.90;;;;;;5503627;26;20369;-79
2024/04/15 11:00:20;;;;;;;4.40;2.60;;;17.60;99.90;;;;;;5492966;26;20738;-79
2024/04/15 11:02:49;;;;;;;3.85;2.70;;;17.20;99.90;;;;;;5490676;26;20385;-79
2024/04/15 11:05:15;;;;;;;3.10;2.80;;;18.70;99.90;;;;;;5504567;26;20350;-79
2024/04/15 11:07:42;;;;;;;4.80;3.30;;;18.10;99.90;;;;;;5498668;26;20340;-78
2024/04/15 11:10:09;;;;;;;2.85;2.60;;;17.80;99.90;;;;;;5484468;26;20911;-79
2024/04/15 11:12:35;;;;;;;4.77;3.13;;;18.10;99.90;;;;;;5500073;26;20435;-79
2024/04/15 11:15:01;;;;;;;3.40;2.40;;;17.90;99.90;;;;;;5496565;26;20691;-79
2024/04/15 11:17:27;;;;;;;5.28;2.33;;;18.50;99.90;;;;;;5496939;26;20345;-79
2024/04/15 11:20:19;;;;;;;4.17;2.50;;;18.50;99.90;;;;;;5498570;26;20374;-80
2024/04/15 11:22:46;;;;;;;6.03;2.83;;;17.70;99.90;;;;;;5464824;26;20362;-79
2024/04/15 11:25:12;;;;;;;4.45;2.50;;;18.50;99.90;;;;;;5458972;26;20327;-79
2024/04/15 11:27:41;;;;;;;4.65;2.70;;;18.00;99.90;;;;;;5498873;26;20338;-79
2024/04/15 11:30:09;;;;;;;3.22;2.53;;;18.20;99.90;;;;;;5466705;26;20335;-79
2024/04/15 11:32:35;;;;;;;3.70;2.63;;;17.90;99.90;;;;;;5498295;26;20330;-79
2024/04/15 11:35:03;;;;;;;3.57;2.70;;;18.00;99.90;;;;;;5498260;26;20358;-80
2024/04/15 11:37:31;;;;;;;3.38;2.90;;;17.60;99.90;;;;;;5498694;26;20327;-79
2024/04/15 11:39:57;;;;;;;4.10;2.53;;;18.30;99.90;;;;;;5468751;26;20869;-79
2024/04/15 11:42:23;;;;;;;4.43;2.30;;;17.80;99.90;;;;;;5499345;26;20378;-80
2024/04/15 11:44:49;;;;;;;3.60;2.17;;;17.80;99.90;;;;;;5467442;26;20466;-79
2024/04/15 11:47:15;;;;;;;4.97;2.50;;;18.00;99.90;;;;;;5462170;26;20849;-80
2024/04/15 11:49:41;;;;;;;3.90;2.60;;;18.20;99.90;;;;;;5483511;26;20432;-81
2024/04/15 11:52:08;;;;;;;4.03;2.78;;;17.60;99.90;;;;;;5488082;26;20384;-81
2024/04/15 11:54:34;;;;;;;2.33;2.13;;;18.10;99.90;;;;;;5497106;26;20326;-81
2024/04/15 11:56:59;;;;;;;4.80;2.60;;;17.30;99.90;;;;;;5448096;26;20419;-80
2024/04/15 11:59:25;;;;;;;4.53;2.67;;;17.70;99.90;;;;;;5447769;26;20316;-80
2024/04/15 12:01:58;;;;;;;2.80;2.43;;;18.00;99.90;;;;;;5470923;26;20354;-79
2024/04/15 12:04:24;;;;;;;3.70;2.60;;;17.60;99.90;;;;;;5486690;26;20336;-80
2024/04/15 12:06:50;;;;;;;3.30;2.10;;;18.10;99.90;;;;;;5472890;26;20322;-81
2024/04/15 12:09:18;;;;;;;5.30;2.30;;;18.70;99.90;;;;;;5495598;26;20799;-79
2024/04/15 12:11:43;;;;;;;3.20;1.88;;;18.80;99.90;;;;;;5490160;26;20323;-78
2024/04/15 12:14:13;;;;;;;4.90;2.47;;;18.50;99.90;;;;;;5456816;26;20383;-81
2024/04/15 12:16:38;;;;;;;4.22;2.30;;;19.10;99.90;;;;;;5491313;26;20393;-79
2024/04/15 12:19:04;;;;;;;6.13;2.70;;;19.60;99.90;;;;;;5447328;26;20337;-82
2024/04/15 12:21:30;;;;;;;3.67;2.00;;;18.70;99.90;;;;;;5457780;26;20365;-82
2024/04/15 12:23:55;;;;;;;3.10;1.90;;;18.60;99.90;;;;;;5447901;26;20318;-81
2024/04/15 12:26:23;;;;;;;5.20;2.40;;;18.80;99.90;;;;;;5495685;26;20318;-80
2024/04/15 12:28:49;;;;;;;4.95;1.90;;;18.80;99.90;;;;;;5502877;26;20358;-81
2024/04/15 12:31:14;;;;;;;3.85;2.28;;;18.70;99.90;;;;;;5501806;26;20814;-81
2024/04/15 12:33:40;;;;;;;3.60;1.95;;;18.50;99.90;;;;;;5499917;26;20393;-80
2024/04/15 12:36:07;;;;;;;2.57;1.80;;;19.00;99.90;;;;;;5503538;26;20322;-81
2024/04/15 12:38:32;;;;;;;4.22;2.00;;;18.90;99.90;;;;;;5499195;26;20679;-81
2024/04/15 12:40:58;;;;;;;2.67;1.87;;;19.20;99.90;;;;;;5489365;26;20342;-79
2024/04/15 12:43:23;;;;;;;3.80;2.13;;;19.20;99.90;;;;;;5455889;26;20346;-79